Time,TemperatureF,DewpointF,PressureIn,WindDirection,WindDirectionDegrees,WindSpeedMPH,WindSpeedGustMPH,Humidity,HourlyPrecipIn,Conditions,Clouds,dailyrainin,SolarRadiationWatts/m^2,SoftwareType,DateUTC
2013-01-30 00:02:00,19.7,15.9,30.16,North,359,5.0,8.0,85,0.00,,,0.00,0,Wunderground v.1.15,2013-01-30 07:02:00,
2013-01-30 00:12:00,19.8,16.0,30.16,North,359,3.0,8.0,85,0.00,,,0.00,0,Wunderground v.1.15,2013-01-30 07:12:00,
2013-01-30 00:18:00,19.8,16.0,30.16,North,359,2.0,8.0,85,0.00,,,0.00,0,Wunderground v.1.15,2013-01-30 07:18:00,
2013-01-30 00:24:00,19.9,16.1,30.16,North,353,4.0,8.0,85,0.00,,,0.00,0,Wunderground v.1.15,2013-01-30 07:24:00,
2013-01-30 00:32:00,20.0,16.2,30.16,North,1,5.0,8.0,85,0.00,,,0.00,0,Wunderground v.1.15,2013-01-30 07:32:00,
2013-01-30 00:38:00,20.1,16.3,30.17,North,1,3.0,8.0,85,0.00,,,0.00,0,Wunderground v.1.15,2013-01-30 07:38:00,
2013-01-30 00:44:00,20.2,16.4,30.15,North,1,2.0,8.0,85,0.00,,,0.00,0,Wunderground v.1.15,2013-01-30 07:44:00,
2013-01-30 00:50:00,20.3,16.5,30.15,North,355,3.0,8.0,85,0.00,,,0.00,0,Wunderground v.1.15,2013-01-30 07:50:00,
2013-01-30 00:56:00,20.4,16.6,30.15,NNE,12,4.0,8.0,85,0.00,,,0.00,0,Wunderground v.1.15,2013-01-30 07:56:00,
2013-01-30 01:02:00,20.6,16.5,30.14,NE,35,5.0,11.0,84,0.00,,,0.00,0,Wunderground v.1.15,2013-01-30 08:02:00,
2013-01-30 01:10:00,20.8,17.0,30.14,WNW,298,5.0,5.0,85,0.00,,,0.00,0,Wunderground v.1.15,2013-01-30 08:10:00,
2013-01-30 01:16:00,20.9,17.1,30.15,WNW,298,2.0,8.0,85,0.00,,,0.00,0,Wunderground v.1.15,2013-01-30 08:16:00,
2013-01-30 01:22:00,20.9,17.1,30.15,WNW,298,1.0,8.0,85,0.00,,,0.00,0,Wunderground v.1.15,2013-01-30 08:22:00,
2013-01-30 01:28:00,21.0,17.2,30.15,WNW,298,2.0,8.0,85,0.00,,,0.00,0,Wunderground v.1.15,2013-01-30 08:28:00,
2013-01-30 01:34:00,21.1,17.3,30.15,WNW,298,1.0,8.0,85,0.00,,,0.00,0,Wunderground v.1.15,2013-01-30 08:34:00,
2013-01-30 01:40:00,21.2,17.4,30.16,WNW,298,2.0,8.0,85,0.00,,,0.00,0,Wunderground v.1.15,2013-01-30 08:40:00,
2013-01-30 01:46:00,21.3,17.5,30.15,WNW,298,2.0,8.0,85,0.00,,,0.00,0,Wunderground v.1.15,2013-01-30 08:46:00,
2013-01-30 01:52:00,21.3,17.2,30.15,WNW,298,1.0,8.0,84,0.00,,,0.00,0,Wunderground v.1.15,2013-01-30 08:52:00,
2013-01-30 01:58:00,21.3,17.5,30.16,WNW,298,1.0,8.0,85,0.00,,,0.00,0,Wunderground v.1.15,2013-01-30 08:58:00,
2013-01-30 02:04:00,21.4,17.6,30.15,WNW,298,2.0,6.0,85,0.00,,,0.00,0,Wunderground v.1.15,2013-01-30 09:04:00,
2013-01-30 02:12:00,21.4,17.6,30.15,WNW,298,2.0,6.0,85,0.00,,,0.00,0,Wunderground v.1.15,2013-01-30 09:12:00,
2013-01-30 02:18:00,21.5,17.7,30.15,WNW,298,0.0,6.0,85,0.00,,,0.00,0,Wunderground v.1.15,2013-01-30 09:18:00,
2013-01-30 02:26:00,21.6,17.8,30.15,WNW,298,0.0,6.0,85,0.00,,,0.00,0,Wunderground v.1.15,2013-01-30 09:26:00,
2013-01-30 02:32:00,21.7,18.2,30.15,WNW,298,1.0,6.0,86,0.00,,,0.00,0,Wunderground v.1.15,2013-01-30 09:32:00,
2013-01-30 02:38:00,21.9,18.4,30.14,WNW,295,3.0,7.0,86,0.00,,,0.00,0,Wunderground v.1.15,2013-01-30 09:38:00,
2013-01-30 02:44:00,22.1,18.3,30.14,SSW,193,7.0,10.0,85,0.00,,,0.00,0,Wunderground v.1.15,2013-01-30 09:44:00,
2013-01-30 02:50:00,22.2,18.7,30.14,SSW,193,4.0,4.0,86,0.00,,,0.00,0,Wunderground v.1.15,2013-01-30 09:50:00,
2013-01-30 02:56:00,22.3,18.7,30.14,SSW,193,1.0,6.0,86,0.00,,,0.00,0,Wunderground v.1.15,2013-01-30 09:56:00,
2013-01-30 03:02:00,23.3,20.3,30.13,SSW,193,3.0,6.0,88,0.00,,,0.00,0,Wunderground v.1.15,2013-01-30 10:02:00,
2013-01-30 03:08:00,23.6,20.0,30.13,South,183,5.0,9.0,86,0.00,,,0.00,0,Wunderground v.1.15,2013-01-30 10:08:00,
2013-01-30 03:16:00,26.8,22.9,30.12,SSW,204,8.0,12.0,85,0.00,,,0.00,0,Wunderground v.1.15,2013-01-30 10:16:00,
2013-01-30 03:24:00,27.2,22.7,30.11,SSW,197,13.0,16.0,83,0.00,,,0.00,0,Wunderground v.1.15,2013-01-30 10:24:00,
2013-01-30 03:30:00,27.4,22.3,30.11,SW,235,13.0,14.0,81,0.00,,,0.00,0,Wunderground v.1.15,2013-01-30 10:30:00,
2013-01-30 03:36:00,24.5,19.5,30.11,SW,215,11.0,14.0,81,0.00,,,0.00,0,Wunderground v.1.15,2013-01-30 10:36:00,
2013-01-30 03:42:00,23.3,18.9,30.12,WNW,298,8.0,9.0,83,0.00,,,0.00,0,Wunderground v.1.15,2013-01-30 10:42:00,
2013-01-30 03:48:00,22.6,18.5,30.11,NW,308,5.0,9.0,84,0.00,,,0.00,0,Wunderground v.1.15,2013-01-30 10:48:00,
2013-01-30 03:54:00,22.2,18.9,30.12,NW,312,4.0,6.0,87,0.00,,,0.00,0,Wunderground v.1.15,2013-01-30 10:54:00,
2013-01-30 04:00:00,22.1,18.8,30.12,NW,312,4.0,4.0,87,0.00,,,0.00,0,Wunderground v.1.15,2013-01-30 11:00:00,
2013-01-30 04:06:00,21.9,18.9,30.12,NW,312,2.0,6.0,88,0.00,,,0.00,0,Wunderground v.1.15,2013-01-30 11:06:00,
2013-01-30 04:12:00,21.8,18.8,30.12,NW,312,3.0,6.0,88,0.00,,,0.00,0,Wunderground v.1.15,2013-01-30 11:12:00,
2013-01-30 04:18:00,21.8,18.8,30.11,NW,312,2.0,6.0,88,0.00,,,0.00,0,Wunderground v.1.15,2013-01-30 11:18:00,
2013-01-30 04:24:00,21.8,19.1,30.11,NW,312,2.0,6.0,89,0.00,,,0.00,0,Wunderground v.1.15,2013-01-30 11:24:00,
2013-01-30 04:30:00,21.9,19.2,30.11,NW,312,2.0,6.0,89,0.00,,,0.00,0,Wunderground v.1.15,2013-01-30 11:30:00,
2013-01-30 04:36:00,22.5,20.0,30.11,West,269,4.0,7.0,90,0.00,,,0.00,0,Wunderground v.1.15,2013-01-30 11:36:00,
2013-01-30 04:42:00,26.0,23.2,30.11,SW,218,7.0,9.0,89,0.00,,,0.00,0,Wunderground v.1.15,2013-01-30 11:42:00,
2013-01-30 04:50:00,30.4,24.4,30.11,SSW,206,7.0,7.0,78,0.00,,,0.00,0,Wunderground v.1.15,2013-01-30 11:50:00,
2013-01-30 04:56:00,32.2,25.5,30.11,SSW,201,11.0,13.0,76,0.00,,,0.00,0,Wunderground v.1.15,2013-01-30 11:56:00,
2013-01-30 05:02:00,32.2,23.5,30.11,West,280,10.0,11.0,70,0.00,,,0.00,0,Wunderground v.1.15,2013-01-30 12:02:00,
2013-01-30 05:10:00,27.2,20.6,30.10,NNW,338,5.0,5.0,76,0.00,,,0.00,0,Wunderground v.1.15,2013-01-30 12:10:00,
2013-01-30 05:16:00,25.2,19.9,30.11,NW,317,5.0,6.0,80,0.00,,,0.00,0,Wunderground v.1.15,2013-01-30 12:16:00,
2013-01-30 05:22:00,24.3,20.2,30.11,NW,318,4.0,6.0,84,0.00,,,0.00,0,Wunderground v.1.15,2013-01-30 12:22:00,
2013-01-30 05:28:00,23.8,19.9,30.12,NNW,342,3.0,8.0,85,0.00,,,0.00,0,Wunderground v.1.15,2013-01-30 12:28:00,
2013-01-30 05:34:00,23.5,19.7,30.12,North,353,5.0,6.0,85,0.00,,,0.00,0,Wunderground v.1.15,2013-01-30 12:34:00,
2013-01-30 05:40:00,23.0,19.7,30.12,North,353,2.0,6.0,87,0.00,,,0.00,0,Wunderground v.1.15,2013-01-30 12:40:00,
2013-01-30 05:46:00,23.5,20.5,30.11,North,353,3.0,7.0,88,0.00,,,0.00,0,Wunderground v.1.15,2013-01-30 12:46:00,
2013-01-30 05:52:00,24.5,20.9,30.12,North,357,7.0,7.0,86,0.00,,,0.00,0,Wunderground v.1.15,2013-01-30 12:52:00,
2013-01-30 05:58:00,23.9,20.3,30.12,North,357,6.0,7.0,86,0.00,,,0.00,0,Wunderground v.1.15,2013-01-30 12:58:00,
2013-01-30 06:04:00,23.7,20.4,30.12,North,357,4.0,15.0,87,0.00,,,0.00,0,Wunderground v.1.15,2013-01-30 13:04:00,
2013-01-30 06:10:00,23.7,20.4,30.12,North,357,3.0,3.0,87,0.00,,,0.00,0,Wunderground v.1.15,2013-01-30 13:10:00,
2013-01-30 06:16:00,23.8,20.8,30.12,North,357,1.0,15.0,88,0.00,,,0.00,0,Wunderground v.1.15,2013-01-30 13:16:00,
2013-01-30 06:22:00,23.9,20.9,30.12,North,357,0.0,15.0,88,0.00,,,0.00,0,Wunderground v.1.15,2013-01-30 13:22:00,
2013-01-30 06:28:00,24.0,21.0,30.11,North,357,2.0,15.0,88,0.00,,,0.00,0,Wunderground v.1.15,2013-01-30 13:28:00,
2013-01-30 06:34:00,24.3,21.3,30.12,North,357,3.0,15.0,88,0.00,,,0.00,0,Wunderground v.1.15,2013-01-30 13:34:00,
2013-01-30 06:40:00,25.0,21.9,30.11,North,357,2.0,2.0,88,0.00,,,0.00,0,Wunderground v.1.15,2013-01-30 13:40:00,
2013-01-30 06:52:00,25.1,22.0,30.12,North,357,2.0,15.0,88,0.00,,,0.00,0,Wunderground v.1.15,2013-01-30 13:52:00,
2013-01-30 06:58:00,25.4,22.6,30.12,North,357,2.0,15.0,89,0.00,,,0.00,0,Wunderground v.1.15,2013-01-30 13:58:00,
2013-01-30 07:04:00,27.1,24.6,30.12,NE,40,4.0,15.0,90,0.00,,,0.00,0,Wunderground v.1.15,2013-01-30 14:04:00,
2013-01-30 07:10:00,29.5,26.1,30.12,ESE,123,8.0,15.0,87,0.00,,,0.00,0,Wunderground v.1.15,2013-01-30 14:10:00,
2013-01-30 07:16:00,30.9,26.3,30.12,South,173,9.0,15.0,83,0.00,,,0.00,0,Wunderground v.1.15,2013-01-30 14:16:00,
2013-01-30 07:22:00,32.3,27.1,30.12,SSW,199,11.0,15.0,81,0.00,,,0.00,0,Wunderground v.1.15,2013-01-30 14:22:00,
2013-01-30 07:28:00,32.9,27.1,30.11,SW,214,14.0,19.0,79,0.00,,,0.00,0,Wunderground v.1.15,2013-01-30 14:28:00,
2013-01-30 07:34:00,32.6,27.1,30.12,SSW,205,16.0,16.0,80,0.00,,,0.00,0,Wunderground v.1.15,2013-01-30 14:34:00,
2013-01-30 07:44:00,32.1,27.2,30.11,SSW,209,16.0,16.0,82,0.00,,,0.00,0,Wunderground v.1.15,2013-01-30 14:44:00,
2013-01-30 07:54:00,33.3,27.2,30.11,SW,216,14.0,15.0,78,0.00,,,0.00,0,Wunderground v.1.15,2013-01-30 14:54:00,
2013-01-30 08:00:00,32.9,27.1,30.11,SSW,213,14.0,15.0,79,0.00,,,0.00,0,Wunderground v.1.15,2013-01-30 15:00:00,
2013-01-30 08:06:00,32.6,27.4,30.11,SSW,211,16.0,17.0,81,0.00,,,0.00,0,Wunderground v.1.15,2013-01-30 15:06:00,
2013-01-30 08:12:00,32.3,27.4,30.11,SSW,212,16.0,16.0,82,0.00,,,0.00,7,Wunderground v.1.15,2013-01-30 15:12:00,
2013-01-30 08:18:00,32.6,27.7,30.10,SW,224,16.0,20.0,82,0.00,,,0.00,12,Wunderground v.1.15,2013-01-30 15:18:00,
2013-01-30 08:24:00,32.5,27.9,30.10,SW,230,18.0,21.0,83,0.00,,,0.00,19,Wunderground v.1.15,2013-01-30 15:24:00,
2013-01-30 08:30:00,32.3,28.0,30.10,SW,226,18.0,18.0,84,0.00,,,0.00,30,Wunderground v.1.15,2013-01-30 15:30:00,
2013-01-30 08:36:00,32.3,28.0,30.11,SW,229,17.0,19.0,84,0.00,,,0.00,35,Wunderground v.1.15,2013-01-30 15:36:00,
2013-01-30 08:42:00,32.5,28.2,30.11,SW,234,17.0,18.0,84,0.00,,,0.00,51,Wunderground v.1.15,2013-01-30 15:42:00,
2013-01-30 08:50:00,33.0,27.8,30.10,SW,226,17.0,19.0,81,0.00,,,0.00,47,Wunderground v.1.15,2013-01-30 15:50:00,
2013-01-30 08:56:00,33.0,27.8,30.10,SW,226,19.0,19.0,81,0.00,,,0.00,47,Wunderground v.1.15,2013-01-30 15:56:00,
2013-01-30 09:02:00,33.4,27.6,30.10,SW,223,16.0,16.0,79,0.00,,,0.00,54,Wunderground v.1.15,2013-01-30 16:02:00,
2013-01-30 09:08:00,33.6,27.5,30.10,SW,218,15.0,16.0,78,0.00,,,0.00,65,Wunderground v.1.15,2013-01-30 16:08:00,
2013-01-30 09:14:00,33.7,27.6,30.10,SW,214,14.0,15.0,78,0.00,,,0.00,69,Wunderground v.1.15,2013-01-30 16:14:00,
2013-01-30 09:20:00,34.1,27.3,30.10,SW,214,13.0,13.0,76,0.00,,,0.00,70,Wunderground v.1.15,2013-01-30 16:20:00,
2013-01-30 09:26:00,34.0,27.5,30.10,SW,221,12.0,16.0,77,0.00,,,0.00,53,Wunderground v.1.15,2013-01-30 16:26:00,
2013-01-30 09:32:00,34.1,27.3,30.10,SW,221,16.0,18.0,76,0.00,,,0.00,62,Wunderground v.1.15,2013-01-30 16:32:00,
2013-01-30 09:38:00,34.3,27.2,30.09,SW,215,18.0,19.0,75,0.00,,,0.00,67,Wunderground v.1.15,2013-01-30 16:38:00,
2013-01-30 09:44:00,34.2,27.4,30.09,SW,222,16.0,18.0,76,0.00,,,0.00,86,Wunderground v.1.15,2013-01-30 16:44:00,
2013-01-30 09:50:00,34.6,27.2,30.10,SW,220,14.0,17.0,74,0.00,,,0.00,97,Wunderground v.1.15,2013-01-30 16:50:00,
2013-01-30 09:56:00,35.0,27.2,30.09,SW,217,14.0,17.0,73,0.00,,,0.00,100,Wunderground v.1.15,2013-01-30 16:56:00,
2013-01-30 10:02:00,35.2,26.7,30.10,SW,215,15.0,17.0,71,0.00,,,0.00,98,Wunderground v.1.15,2013-01-30 17:02:00,
2013-01-30 10:08:00,35.5,27.4,30.10,SW,229,14.0,17.0,72,0.00,,,0.00,111,Wunderground v.1.15,2013-01-30 17:08:00,
2013-01-30 10:14:00,35.5,27.4,30.11,WSW,243,10.0,15.0,72,0.00,,,0.00,100,Wunderground v.1.15,2013-01-30 17:14:00,
2013-01-30 10:20:00,34.9,27.8,30.11,SW,232,10.0,15.0,75,0.00,,,0.00,90,Wunderground v.1.15,2013-01-30 17:20:00,
2013-01-30 10:26:00,34.4,28.2,30.11,SW,217,15.0,19.0,78,0.00,,,0.00,81,Wunderground v.1.15,2013-01-30 17:26:00,
2013-01-30 10:32:00,34.4,27.9,30.10,SW,221,10.0,15.0,77,0.00,,,0.00,91,Wunderground v.1.15,2013-01-30 17:32:00,
2013-01-30 10:38:00,35.0,27.5,30.10,SW,225,8.0,15.0,74,0.00,,,0.00,107,Wunderground v.1.15,2013-01-30 17:38:00,
2013-01-30 10:44:00,35.5,27.4,30.11,SW,229,9.0,15.0,72,0.00,,,0.00,135,Wunderground v.1.15,2013-01-30 17:44:00,
2013-01-30 10:50:00,35.7,27.2,30.10,SW,229,8.0,8.0,71,0.00,,,0.00,125,Wunderground v.1.15,2013-01-30 17:50:00,
2013-01-30 10:56:00,35.6,27.5,30.11,SW,229,7.0,15.0,72,0.00,,,0.00,109,Wunderground v.1.15,2013-01-30 17:56:00,
2013-01-30 11:02:00,35.5,27.4,30.11,North,354,6.0,20.0,72,0.00,,,0.00,98,Wunderground v.1.15,2013-01-30 18:02:00,
2013-01-30 11:08:00,35.5,28.0,30.12,North,354,6.0,20.0,74,0.00,,,0.00,118,Wunderground v.1.15,2013-01-30 18:08:00,
2013-01-30 11:14:00,35.7,27.9,30.11,North,354,3.0,20.0,73,0.00,,,0.00,144,Wunderground v.1.15,2013-01-30 18:14:00,
2013-01-30 11:20:00,35.9,27.7,30.11,North,354,1.0,1.0,72,0.00,,,0.00,153,Wunderground v.1.15,2013-01-30 18:20:00,
2013-01-30 11:26:00,35.9,27.4,30.12,North,354,2.0,20.0,71,0.00,,,0.00,120,Wunderground v.1.15,2013-01-30 18:26:00,
2013-01-30 11:32:00,35.7,27.2,30.11,WSW,237,5.0,20.0,71,0.00,,,0.00,153,Wunderground v.1.15,2013-01-30 18:32:00,
2013-01-30 11:38:00,35.9,27.4,30.11,WSW,237,6.0,20.0,71,0.00,,,0.00,121,Wunderground v.1.15,2013-01-30 18:38:00,
2013-01-30 11:44:00,36.0,27.5,30.12,WSW,248,5.0,20.0,71,0.00,,,0.00,111,Wunderground v.1.15,2013-01-30 18:44:00,
2013-01-30 11:50:00,36.3,27.8,30.11,WNW,297,6.0,20.0,71,0.00,,,0.00,125,Wunderground v.1.15,2013-01-30 18:50:00,
2013-01-30 11:56:00,36.1,28.3,30.11,NNW,336,5.0,20.0,73,0.00,,,0.00,118,Wunderground v.1.15,2013-01-30 18:56:00,
2013-01-30 12:02:00,35.5,28.7,30.11,NNW,336,6.0,20.0,76,0.00,,,0.00,114,Wunderground v.1.15,2013-01-30 19:02:00,
2013-01-30 12:08:00,35.3,28.5,30.12,NNW,336,4.0,20.0,76,0.00,,,0.00,120,Wunderground v.1.15,2013-01-30 19:08:00,
2013-01-30 12:14:00,35.2,28.7,30.11,NNW,336,4.0,20.0,77,0.00,,,0.00,134,Wunderground v.1.15,2013-01-30 19:14:00,
2013-01-30 12:20:00,35.1,28.9,30.11,NNW,336,3.0,3.0,78,0.00,,,0.00,153,Wunderground v.1.15,2013-01-30 19:20:00,
2013-01-30 12:26:00,35.0,29.5,30.11,NNW,336,3.0,20.0,80,0.00,,,0.00,144,Wunderground v.1.15,2013-01-30 19:26:00,
2013-01-30 12:32:00,34.9,29.4,30.11,NNW,336,2.0,20.0,80,0.00,,,0.00,125,Wunderground v.1.15,2013-01-30 19:32:00,
2013-01-30 12:38:00,34.9,29.4,30.10,NNW,336,0.0,20.0,80,0.00,,,0.00,130,Wunderground v.1.15,2013-01-30 19:38:00,
2013-01-30 12:44:00,34.9,29.0,30.10,NNW,336,1.0,20.0,79,0.00,,,0.00,132,Wunderground v.1.15,2013-01-30 19:44:00,
2013-01-30 12:50:00,35.0,28.8,30.10,NNW,336,2.0,20.0,78,0.00,,,0.00,144,Wunderground v.1.15,2013-01-30 19:50:00,
2013-01-30 12:56:00,35.2,29.0,30.10,NNW,336,2.0,20.0,78,0.00,,,0.00,127,Wunderground v.1.15,2013-01-30 19:56:00,
2013-01-30 13:02:00,35.2,29.0,30.10,NNW,336,2.0,20.0,78,0.00,,,0.00,116,Wunderground v.1.15,2013-01-30 20:02:00,
2013-01-30 13:08:00,35.1,28.3,30.10,NNW,336,2.0,20.0,76,0.00,,,0.00,137,Wunderground v.1.15,2013-01-30 20:08:00,
2013-01-30 13:14:00,35.5,28.0,30.10,NNW,336,1.0,20.0,74,0.00,,,0.00,120,Wunderground v.1.15,2013-01-30 20:14:00,
2013-01-30 13:20:00,35.9,27.7,30.10,NNW,336,2.0,20.0,72,0.00,,,0.00,118,Wunderground v.1.15,2013-01-30 20:20:00,
2013-01-30 13:26:00,36.4,27.5,30.10,NNW,336,4.0,20.0,70,0.00,,,0.00,134,Wunderground v.1.15,2013-01-30 20:26:00,
2013-01-30 13:32:00,36.7,28.2,30.10,NNW,336,3.0,20.0,71,0.00,,,0.00,142,Wunderground v.1.15,2013-01-30 20:32:00,
2013-01-30 13:38:00,37.0,27.8,30.10,NNW,336,1.0,20.0,69,0.00,,,0.00,125,Wunderground v.1.15,2013-01-30 20:38:00,
2013-01-30 13:44:00,37.3,27.3,30.10,NNW,336,2.0,20.0,67,0.00,,,0.00,111,Wunderground v.1.15,2013-01-30 20:44:00,
2013-01-30 13:54:00,37.5,26.8,30.09,NNW,336,3.0,20.0,65,0.00,,,0.00,123,Wunderground v.1.15,2013-01-30 20:54:00,
2013-01-30 14:00:00,37.7,27.4,30.09,NNW,334,3.0,20.0,66,0.00,,,0.00,125,Wunderground v.1.15,2013-01-30 21:00:00,
2013-01-30 14:10:00,37.8,27.1,30.09,NNW,336,5.0,5.0,65,0.00,,,0.00,127,Wunderground v.1.15,2013-01-30 21:10:00,
2013-01-30 14:18:00,38.1,25.8,30.09,NNW,345,5.0,20.0,61,0.00,,,0.00,113,Wunderground v.1.15,2013-01-30 21:18:00,
2013-01-30 14:24:00,38.3,26.4,30.09,North,354,5.0,20.0,62,0.00,,,0.00,104,Wunderground v.1.15,2013-01-30 21:24:00,
2013-01-30 14:30:00,38.4,26.1,30.09,North,354,5.0,5.0,61,0.00,,,0.00,98,Wunderground v.1.15,2013-01-30 21:30:00,
2013-01-30 14:36:00,38.2,25.9,30.08,South,177,6.0,20.0,61,0.00,,,0.00,90,Wunderground v.1.15,2013-01-30 21:36:00,
2013-01-30 14:44:00,37.7,27.0,30.10,SW,225,11.0,20.0,65,0.00,,,0.00,93,Wunderground v.1.15,2013-01-30 21:44:00,
2013-01-30 14:50:00,37.7,27.0,30.09,SW,227,9.0,20.0,65,0.00,,,0.00,93,Wunderground v.1.15,2013-01-30 21:50:00,
2013-01-30 14:56:00,37.5,27.9,30.09,SW,233,9.0,20.0,68,0.00,,,0.00,91,Wunderground v.1.15,2013-01-30 21:56:00,
2013-01-30 15:02:00,37.5,27.2,30.09,WSW,239,9.0,18.0,66,0.00,,,0.00,83,Wunderground v.1.15,2013-01-30 22:02:00,
2013-01-30 15:10:00,37.3,28.1,30.09,WSW,247,10.0,18.0,69,0.00,,,0.00,104,Wunderground v.1.15,2013-01-30 22:10:00,
2013-01-30 15:18:00,37.6,28.0,30.09,SW,234,12.0,18.0,68,0.00,,,0.00,188,Wunderground v.1.15,2013-01-30 22:18:00,
2013-01-30 15:24:00,37.8,28.2,30.09,SW,229,12.0,18.0,68,0.00,,,0.00,169,Wunderground v.1.15,2013-01-30 22:24:00,
2013-01-30 15:30:00,38.0,28.4,30.09,West,260,13.0,18.0,68,0.00,,,0.00,118,Wunderground v.1.15,2013-01-30 22:30:00,
2013-01-30 15:36:00,37.9,28.3,30.09,WSW,245,12.0,18.0,68,0.00,,,0.00,97,Wunderground v.1.15,2013-01-30 22:36:00,
2013-01-30 15:42:00,37.2,28.7,30.09,SW,232,12.0,19.0,71,0.00,,,0.00,109,Wunderground v.1.15,2013-01-30 22:42:00,
2013-01-30 15:48:00,36.8,29.0,30.09,WSW,241,16.0,19.0,73,0.00,,,0.00,149,Wunderground v.1.15,2013-01-30 22:48:00,
2013-01-30 15:54:00,36.4,29.2,30.09,SW,231,16.0,18.0,75,0.00,,,0.00,151,Wunderground v.1.15,2013-01-30 22:54:00,
2013-01-30 16:02:00,36.5,29.0,30.09,SW,232,16.0,18.0,74,0.00,,,0.00,142,Wunderground v.1.15,2013-01-30 23:02:00,
2013-01-30 16:08:00,36.5,29.0,30.09,WSW,237,12.0,18.0,74,0.00,,,0.00,151,Wunderground v.1.15,2013-01-30 23:08:00,
2013-01-30 16:14:00,36.3,29.8,30.08,SW,228,17.0,21.0,77,0.00,,,0.00,209,Wunderground v.1.15,2013-01-30 23:14:00,
2013-01-30 16:20:00,36.0,29.5,30.08,SW,231,19.0,22.0,77,0.00,,,0.00,163,Wunderground v.1.15,2013-01-30 23:20:00,
2013-01-30 16:26:00,36.1,29.3,30.08,WSW,238,18.0,22.0,76,0.00,,,0.00,137,Wunderground v.1.15,2013-01-30 23:26:00,
2013-01-30 16:32:00,36.2,29.0,30.08,WSW,244,17.0,18.0,75,0.00,,,0.00,113,Wunderground v.1.15,2013-01-30 23:32:00,
2013-01-30 16:38:00,36.0,29.2,30.08,WSW,239,19.0,26.0,76,0.00,,,0.00,100,Wunderground v.1.15,2013-01-30 23:38:00,
2013-01-30 16:44:00,36.0,29.2,30.08,SW,236,21.0,22.0,76,0.00,,,0.00,91,Wunderground v.1.15,2013-01-30 23:44:00,
2013-01-30 16:50:00,35.8,29.3,30.08,SW,224,21.0,21.0,77,0.00,,,0.00,53,Wunderground v.1.15,2013-01-30 23:50:00,
2013-01-30 16:56:00,35.8,29.3,30.09,SW,233,20.0,21.0,77,0.00,,,0.00,46,Wunderground v.1.15,2013-01-30 23:56:00,
2013-01-30 17:02:00,35.7,29.2,30.09,WSW,237,18.0,18.0,77,0.00,,,0.00,72,Wunderground v.1.15,2013-01-31 00:02:00,
2013-01-30 17:08:00,35.9,29.1,30.10,SW,231,16.0,18.0,76,0.00,,,0.00,35,Wunderground v.1.15,2013-01-31 00:08:00,
2013-01-30 17:14:00,35.8,29.3,30.10,SW,232,15.0,18.0,77,0.00,,,0.00,28,Wunderground v.1.15,2013-01-31 00:14:00,
2013-01-30 17:20:00,36.0,28.8,30.10,SW,231,14.0,14.0,75,0.00,,,0.00,19,Wunderground v.1.15,2013-01-31 00:20:00,
2013-01-30 17:26:00,36.1,28.9,30.10,SW,232,12.0,18.0,75,0.00,,,0.00,11,Wunderground v.1.15,2013-01-31 00:26:00,
2013-01-30 17:32:00,35.8,29.0,30.10,SW,224,11.0,18.0,76,0.00,,,0.00,0,Wunderground v.1.15,2013-01-31 00:32:00,
2013-01-30 17:38:00,35.7,28.9,30.11,SW,229,9.0,18.0,76,0.00,,,0.00,0,Wunderground v.1.15,2013-01-31 00:38:00,
2013-01-30 17:44:00,35.6,28.5,30.09,SSW,211,8.0,18.0,75,0.00,,,0.00,0,Wunderground v.1.15,2013-01-31 00:44:00,
2013-01-30 17:50:00,35.7,28.6,30.10,SW,218,8.0,18.0,75,0.00,,,0.00,0,Wunderground v.1.15,2013-01-31 00:50:00,
2013-01-30 17:56:00,35.9,28.1,30.10,WSW,256,8.0,18.0,73,0.00,,,0.00,0,Wunderground v.1.15,2013-01-31 00:56:00,
2013-01-30 18:02:00,36.0,28.5,30.11,West,264,7.0,18.0,74,0.00,,,0.00,0,Wunderground v.1.15,2013-01-31 01:02:00,
2013-01-30 18:08:00,35.8,28.6,30.10,SW,219,7.0,18.0,75,0.00,,,0.00,0,Wunderground v.1.15,2013-01-31 01:08:00,
2013-01-30 18:14:00,35.9,28.4,30.10,SW,231,10.0,18.0,74,0.00,,,0.00,0,Wunderground v.1.15,2013-01-31 01:14:00,
2013-01-30 18:20:00,35.9,27.7,30.11,SW,224,9.0,9.0,72,0.00,,,0.00,0,Wunderground v.1.15,2013-01-31 01:20:00,
2013-01-30 18:26:00,35.8,28.3,30.10,SW,226,9.0,18.0,74,0.00,,,0.00,0,Wunderground v.1.15,2013-01-31 01:26:00,
2013-01-30 18:32:00,35.4,28.9,30.10,SW,221,10.0,18.0,77,0.00,,,0.00,0,Wunderground v.1.15,2013-01-31 01:32:00,
2013-01-30 18:38:00,35.3,28.8,30.11,SW,222,12.0,18.0,77,0.00,,,0.00,0,Wunderground v.1.15,2013-01-31 01:38:00,
2013-01-30 18:44:00,35.0,29.1,30.11,SW,218,12.0,18.0,79,0.00,,,0.00,0,Wunderground v.1.15,2013-01-31 01:44:00,
2013-01-30 18:50:00,34.8,29.3,30.11,SW,217,11.0,11.0,80,0.00,,,0.00,0,Wunderground v.1.15,2013-01-31 01:50:00,
2013-01-30 18:56:00,34.6,29.4,30.11,SW,219,9.0,18.0,81,0.00,,,0.00,0,Wunderground v.1.15,2013-01-31 01:56:00,
2013-01-30 19:06:00,35.0,29.5,30.11,SW,220,6.0,18.0,80,0.00,,,0.00,0,Wunderground v.1.15,2013-01-31 02:06:00,
2013-01-30 19:14:00,34.5,29.6,30.10,SSW,204,7.0,18.0,82,0.00,,,0.00,0,Wunderground v.1.15,2013-01-31 02:14:00,
2013-01-30 19:20:00,34.4,29.5,30.11,SSW,208,8.0,8.0,82,0.00,,,0.00,0,Wunderground v.1.15,2013-01-31 02:20:00,
2013-01-30 19:28:00,34.2,29.3,30.10,SSW,208,6.0,18.0,82,0.00,,,0.00,0,Wunderground v.1.15,2013-01-31 02:28:00,
2013-01-30 19:34:00,34.3,29.1,30.10,SW,214,6.0,18.0,81,0.00,,,0.00,0,Wunderground v.1.15,2013-01-31 02:34:00,
2013-01-30 19:42:00,34.5,29.0,30.10,SW,214,5.0,18.0,80,0.00,,,0.00,0,Wunderground v.1.15,2013-01-31 02:42:00,
2013-01-30 19:48:00,34.6,29.1,30.10,SW,214,3.0,18.0,80,0.00,,,0.00,0,Wunderground v.1.15,2013-01-31 02:48:00,
2013-01-30 19:54:00,34.6,29.1,30.11,SW,214,2.0,18.0,80,0.00,,,0.00,0,Wunderground v.1.15,2013-01-31 02:54:00,
2013-01-30 20:00:00,34.3,28.8,30.11,SW,214,2.0,11.0,80,0.00,,,0.00,0,Wunderground v.1.15,2013-01-31 03:00:00,
2013-01-30 20:06:00,34.8,27.4,30.11,NNW,339,4.0,11.0,74,0.00,,,0.00,0,Wunderground v.1.15,2013-01-31 03:06:00,
2013-01-30 20:12:00,35.3,28.2,30.11,NNW,339,5.0,11.0,75,0.00,,,0.00,0,Wunderground v.1.15,2013-01-31 03:12:00,
2013-01-30 20:18:00,35.4,27.9,30.11,NNW,339,3.0,11.0,74,0.00,,,0.00,0,Wunderground v.1.15,2013-01-31 03:18:00,
2013-01-30 20:24:00,36.0,27.8,30.12,SW,234,4.0,11.0,72,0.00,,,0.00,0,Wunderground v.1.15,2013-01-31 03:24:00,
2013-01-30 20:30:00,36.7,26.8,30.11,SW,224,8.0,8.0,67,0.00,,,0.00,0,Wunderground v.1.15,2013-01-31 03:30:00,
2013-01-30 20:36:00,36.7,27.8,30.11,SSW,206,9.0,11.0,70,0.00,,,0.00,0,Wunderground v.1.15,2013-01-31 03:36:00,
2013-01-30 20:44:00,36.0,28.2,30.11,SSW,206,11.0,13.0,73,0.00,,,0.00,0,Wunderground v.1.15,2013-01-31 03:44:00,
2013-01-30 20:50:00,35.8,28.3,30.12,SW,220,10.0,10.0,74,0.00,,,0.00,0,Wunderground v.1.15,2013-01-31 03:50:00,
2013-01-30 20:56:00,35.9,28.4,30.12,SW,220,6.0,11.0,74,0.00,,,0.00,0,Wunderground v.1.15,2013-01-31 03:56:00,
2013-01-30 21:02:00,35.9,28.1,30.12,SW,220,3.0,11.0,73,0.00,,,0.00,0,Wunderground v.1.15,2013-01-31 04:02:00,
2013-01-30 21:10:00,35.9,28.1,30.13,SW,220,1.0,1.0,73,0.00,,,0.00,0,Wunderground v.1.15,2013-01-31 04:10:00,
2013-01-30 21:16:00,35.8,28.3,30.13,SW,220,2.0,11.0,74,0.00,,,0.00,0,Wunderground v.1.15,2013-01-31 04:16:00,
2013-01-30 21:24:00,35.5,28.7,30.13,SW,220,5.0,11.0,76,0.00,,,0.00,0,Wunderground v.1.15,2013-01-31 04:24:00,
2013-01-30 21:30:00,35.2,29.0,30.13,SSW,195,6.0,6.0,78,0.00,,,0.00,0,Wunderground v.1.15,2013-01-31 04:30:00,
2013-01-30 21:36:00,35.0,29.1,30.13,SSW,195,5.0,11.0,79,0.00,,,0.00,0,Wunderground v.1.15,2013-01-31 04:36:00,
2013-01-30 21:42:00,34.8,29.3,30.14,SSW,195,3.0,11.0,80,0.00,,,0.00,0,Wunderground v.1.15,2013-01-31 04:42:00,
2013-01-30 21:48:00,34.7,29.8,30.13,SSW,195,3.0,11.0,82,0.00,,,0.00,0,Wunderground v.1.15,2013-01-31 04:48:00,
2013-01-30 21:54:00,34.2,29.9,30.14,SSW,193,7.0,11.0,84,0.00,,,0.00,0,Wunderground v.1.15,2013-01-31 04:54:00,
2013-01-30 22:02:00,33.6,30.1,30.14,South,189,8.0,12.0,87,0.00,,,0.00,0,Wunderground v.1.15,2013-01-31 05:02:00,
2013-01-30 22:08:00,33.5,30.0,30.13,SE,139,10.0,12.0,87,0.00,,,0.00,0,Wunderground v.1.15,2013-01-31 05:08:00,
2013-01-30 22:10:00,33.6,30.1,30.13,SE,139,10.0,10.0,87,0.00,,,0.00,0,Wunderground v.1.15,2013-01-31 05:10:00,
2013-01-30 22:18:00,33.7,29.7,30.13,SE,139,8.0,11.0,85,0.00,,,0.00,0,Wunderground v.1.15,2013-01-31 05:18:00,
2013-01-30 22:24:00,33.9,29.3,30.13,SE,137,8.0,12.0,83,0.00,,,0.00,0,Wunderground v.1.15,2013-01-31 05:24:00,
2013-01-30 22:30:00,34.2,29.3,30.13,ESE,121,11.0,11.0,82,0.00,,,0.00,0,Wunderground v.1.15,2013-01-31 05:30:00,
2013-01-30 22:36:00,34.3,29.4,30.13,ESE,121,11.0,15.0,82,0.00,,,0.00,0,Wunderground v.1.15,2013-01-31 05:36:00,
2013-01-30 22:42:00,34.2,29.3,30.14,ESE,109,12.0,13.0,82,0.00,,,0.00,0,Wunderground v.1.15,2013-01-31 05:42:00,
2013-01-30 22:48:00,34.3,29.1,30.14,SE,128,11.0,13.0,81,0.00,,,0.00,0,Wunderground v.1.15,2013-01-31 05:48:00,
2013-01-30 22:54:00,35.1,28.6,30.14,South,178,8.0,11.0,77,0.00,,,0.00,0,Wunderground v.1.15,2013-01-31 05:54:00,
2013-01-30 23:00:00,35.7,28.9,30.14,South,179,7.0,11.0,76,0.00,,,0.00,0,Wunderground v.1.15,2013-01-31 06:00:00,
2013-01-30 23:06:00,36.1,28.6,30.13,South,191,7.0,11.0,74,0.00,,,0.00,0,Wunderground v.1.15,2013-01-31 06:06:00,
2013-01-30 23:12:00,36.1,28.6,30.13,South,191,6.0,11.0,74,0.00,,,0.00,0,Wunderground v.1.15,2013-01-31 06:12:00,
2013-01-30 23:18:00,35.8,29.0,30.14,SW,229,5.0,11.0,76,0.00,,,0.00,0,Wunderground v.1.15,2013-01-31 06:18:00,
2013-01-30 23:24:00,35.6,29.1,30.14,WSW,237,9.0,14.0,77,0.00,,,0.00,0,Wunderground v.1.15,2013-01-31 06:24:00,
2013-01-30 23:32:00,35.5,29.3,30.13,WSW,248,10.0,11.0,78,0.00,,,0.00,0,Wunderground v.1.15,2013-01-31 06:32:00,
2013-01-30 23:38:00,35.6,29.1,30.13,WSW,241,11.0,11.0,77,0.00,,,0.00,0,Wunderground v.1.15,2013-01-31 06:38:00,
2013-01-30 23:44:00,35.8,29.0,30.13,WSW,238,11.0,12.0,76,0.00,,,0.00,0,Wunderground v.1.15,2013-01-31 06:44:00,
2013-01-30 23:50:00,35.9,29.1,30.14,WSW,238,7.0,7.0,76,0.00,,,0.00,0,Wunderground v.1.15,2013-01-31 06:50:00,
2013-01-30 23:56:00,35.9,28.7,30.14,WSW,238,3.0,11.0,75,0.00,,,0.00,0,Wunderground v.1.15,2013-01-31 06:56:00,